sensor_id;sensor_type;location;lat;lon;timestamp;pressure;altitude;pressure_sealevel;temperature
45701;BMP280;36277;32.852;-116.998;2022-11-11T00:01:44;100250.78;;;25.71
45701;BMP280;36277;32.852;-116.998;2022-11-11T00:04:10;100253.56;;;25.71
45701;BMP280;36277;32.852;-116.998;2022-11-11T00:06:36;100251.44;;;25.73
45701;BMP280;36277;32.852;-116.998;2022-11-11T00:09:03;100255.88;;;25.74
45701;BMP280;36277;32.852;-116.998;2022-11-11T00:11:29;100253.78;;;25.76
45701;BMP280;36277;32.852;-116.998;2022-11-11T00:13:55;100248.06;;;25.78
45701;BMP280;36277;32.852;-116.998;2022-11-11T00:16:21;100248.91;;;25.78
45701;BMP280;36277;32.852;-116.998;2022-11-11T00:18:47;100247.88;;;25.79
45701;BMP280;36277;32.852;-116.998;2022-11-11T00:21:32;100250.66;;;25.79
45701;BMP280;36277;32.852;-116.998;2022-11-11T00:24:23;100245.13;;;25.79
45701;BMP280;36277;32.852;-116.998;2022-11-11T00:27:09;100253.22;;;25.81
45701;BMP280;36277;32.852;-116.998;2022-11-11T00:29:36;100249.00;;;25.85
45701;BMP280;36277;32.852;-116.998;2022-11-11T00:32:07;100249.84;;;25.85
45701;BMP280;36277;32.852;-116.998;2022-11-11T00:34:49;100247.28;;;25.84
45701;BMP280;36277;32.852;-116.998;2022-11-11T00:37:34;100248.53;;;25.81
45701;BMP280;36277;32.852;-116.998;2022-11-11T00:40:00;100252.81;;;25.84
45701;BMP280;36277;32.852;-116.998;2022-11-11T00:42:27;100247.28;;;25.84
45701;BMP280;36277;32.852;-116.998;2022-11-11T00:44:53;100251.13;;;25.83
45701;BMP280;36277;32.852;-116.998;2022-11-11T00:47:19;100253.88;;;25.83
45701;BMP280;36277;32.852;-116.998;2022-11-11T00:50:08;100255.78;;;25.82
45701;BMP280;36277;32.852;-116.998;2022-11-11T00:52:54;100256.00;;;25.81
45701;BMP280;36277;32.852;-116.998;2022-11-11T00:55:20;100258.53;;;25.82
45701;BMP280;36277;32.852;-116.998;2022-11-11T00:57:46;100255.78;;;25.82
45701;BMP280;36277;32.852;-116.998;2022-11-11T01:00:12;100253.66;;;25.84
45701;BMP280;36277;32.852;-116.998;2022-11-11T01:02:39;100255.78;;;25.82
45701;BMP280;36277;32.852;-116.998;2022-11-11T01:05:05;100262.19;;;25.83
45701;BMP280;36277;32.852;-116.998;2022-11-11T01:07:32;100259.41;;;25.83
45701;BMP280;36277;32.852;-116.998;2022-11-11T01:09:58;100263.00;;;25.83
45701;BMP280;36277;32.852;-116.998;2022-11-11T01:12:24;100260.25;;;25.83
45701;BMP280;36277;32.852;-116.998;2022-11-11T01:14:51;100256.66;;;25.83
45701;BMP280;36277;32.852;-116.998;2022-11-11T01:17:18;100254.06;;;25.81
45701;BMP280;36277;32.852;-116.998;2022-11-11T01:19:45;100259.59;;;25.81
45701;BMP280;36277;32.852;-116.998;2022-11-11T01:22:11;100266.00;;;25.82
45701;BMP280;36277;32.852;-116.998;2022-11-11T01:24:37;100270.00;;;25.79
45701;BMP280;36277;32.852;-116.998;2022-11-11T01:27:03;100273.63;;;25.80
45701;BMP280;36277;32.852;-116.998;2022-11-11T01:29:30;100267.22;;;25.79
45701;BMP280;36277;32.852;-116.998;2022-11-11T01:31:56;100272.06;;;25.77
45701;BMP280;36277;32.852;-116.998;2022-11-11T01:34:22;100279.53;;;25.77
45701;BMP280;36277;32.852;-116.998;2022-11-11T01:36:48;100279.31;;;25.78
45701;BMP280;36277;32.852;-116.998;2022-11-11T01:39:15;100275.06;;;25.76
45701;BMP280;36277;32.852;-116.998;2022-11-11T01:41:41;100288.88;;;25.76
45701;BMP280;36277;32.852;-116.998;2022-11-11T01:46:54;100291.44;;;25.77
45701;BMP280;36277;32.852;-116.998;2022-11-11T01:55:04;100297.97;;;25.70
45701;BMP280;36277;32.852;-116.998;2022-11-11T01:57:50;100297.53;;;25.66
45701;BMP280;36277;32.852;-116.998;2022-11-11T02:00:18;100305.34;;;25.63
45701;BMP280;36277;32.852;-116.998;2022-11-11T02:02:51;100301.53;;;25.64
45701;BMP280;36277;32.852;-116.998;2022-11-11T02:05:20;100293.84;;;25.59
45701;BMP280;36277;32.852;-116.998;2022-11-11T02:08:28;100302.13;;;25.59
45701;BMP280;36277;32.852;-116.998;2022-11-11T02:11:10;100318.28;;;25.56
45701;BMP280;36277;32.852;-116.998;2022-11-11T02:13:38;100315.69;;;25.54
45701;BMP280;36277;32.852;-116.998;2022-11-11T02:16:24;100316.75;;;25.53
45701;BMP280;36277;32.852;-116.998;2022-11-11T02:18:50;100317.63;;;25.54
45701;BMP280;36277;32.852;-116.998;2022-11-11T02:21:32;100327.41;;;25.56
45701;BMP280;36277;32.852;-116.998;2022-11-11T02:24:14;100330.56;;;25.53
45701;BMP280;36277;32.852;-116.998;2022-11-11T02:26:42;100332.00;;;25.49
45701;BMP280;36277;32.852;-116.998;2022-11-11T02:29:17;100335.25;;;25.53
45701;BMP280;36277;32.852;-116.998;2022-11-11T02:31:45;100328.63;;;25.47
45701;BMP280;36277;32.852;-116.998;2022-11-11T02:34:11;100331.16;;;25.49
45701;BMP280;36277;32.852;-116.998;2022-11-11T02:36:38;100334.97;;;25.48
45701;BMP280;36277;32.852;-116.998;2022-11-11T02:39:05;100349.00;;;25.46
45701;BMP280;36277;32.852;-116.998;2022-11-11T02:41:31;100349.00;;;25.46
45701;BMP280;36277;32.852;-116.998;2022-11-11T02:44:16;100351.13;;;25.44
45701;BMP280;36277;32.852;-116.998;2022-11-11T02:46:42;100354.53;;;25.46
45701;BMP280;36277;32.852;-116.998;2022-11-11T02:49:08;100361.97;;;25.46
45701;BMP280;36277;32.852;-116.998;2022-11-11T02:51:35;100358.34;;;25.45
45701;BMP280;36277;32.852;-116.998;2022-11-11T02:54:01;100358.53;;;25.44
45701;BMP280;36277;32.852;-116.998;2022-11-11T02:56:27;100354.72;;;25.45
45701;BMP280;36277;32.852;-116.998;2022-11-11T02:59:12;100363.41;;;25.42
45701;BMP280;36277;32.852;-116.998;2022-11-11T03:01:38;100359.97;;;25.40
45701;BMP280;36277;32.852;-116.998;2022-11-11T03:04:05;100359.78;;;25.41
45701;BMP280;36277;32.852;-116.998;2022-11-11T03:06:31;100356.38;;;25.39
45701;BMP280;36277;32.852;-116.998;2022-11-11T03:08:57;100364.66;;;25.39
45701;BMP280;36277;32.852;-116.998;2022-11-11T03:11:24;100362.75;;;25.40
45701;BMP280;36277;32.852;-116.998;2022-11-11T03:13:57;100366.56;;;25.39
45701;BMP280;36277;32.852;-116.998;2022-11-11T03:16:24;100370.97;;;25.33
45701;BMP280;36277;32.852;-116.998;2022-11-11T03:19:08;100365.31;;;25.21
45701;BMP280;36277;32.852;-116.998;2022-11-11T03:21:35;100358.91;;;25.20
45701;BMP280;36277;32.852;-116.998;2022-11-11T03:24:01;100365.69;;;25.18
45701;BMP280;36277;32.852;-116.998;2022-11-11T03:26:28;100365.03;;;25.16
45701;BMP280;36277;32.852;-116.998;2022-11-11T03:28:54;100365.03;;;25.16
45701;BMP280;36277;32.852;-116.998;2022-11-11T03:31:20;100371.59;;;25.15
45701;BMP280;36277;32.852;-116.998;2022-11-11T03:33:46;100376.91;;;25.16
45701;BMP280;36277;32.852;-116.998;2022-11-11T03:36:13;100373.59;;;25.21
45701;BMP280;36277;32.852;-116.998;2022-11-11T03:38:39;100381.69;;;25.22
45701;BMP280;36277;32.852;-116.998;2022-11-11T03:41:05;100391.69;;;25.23
45701;BMP280;36277;32.852;-116.998;2022-11-11T03:43:33;100386.59;;;25.27
45701;BMP280;36277;32.852;-116.998;2022-11-11T03:46:04;100375.75;;;25.25
45701;BMP280;36277;32.852;-116.998;2022-11-11T03:48:32;100383.00;;;25.26
45701;BMP280;36277;32.852;-116.998;2022-11-11T03:50:58;100386.81;;;25.25
45701;BMP280;36277;32.852;-116.998;2022-11-11T03:53:25;100392.34;;;25.25
45701;BMP280;36277;32.852;-116.998;2022-11-11T03:55:51;100389.38;;;25.27
45701;BMP280;36277;32.852;-116.998;2022-11-11T03:58:18;100389.56;;;25.25
45701;BMP280;36277;32.852;-116.998;2022-11-11T04:00:44;100391.69;;;25.23
45701;BMP280;36277;32.852;-116.998;2022-11-11T04:03:18;100396.16;;;25.24
45701;BMP280;36277;32.852;-116.998;2022-11-11T04:06:03;100407.59;;;25.21
45701;BMP280;36277;32.852;-116.998;2022-11-11T04:08:48;100409.91;;;25.18
45701;BMP280;36277;32.852;-116.998;2022-11-11T04:14:07;100416.25;;;25.18
45701;BMP280;36277;32.852;-116.998;2022-11-11T04:16:52;100419.63;;;25.14
45701;BMP280;36277;32.852;-116.998;2022-11-11T04:19:19;100425.13;;;25.14
45701;BMP280;36277;32.852;-116.998;2022-11-11T04:22:04;100426.16;;;25.13
45701;BMP280;36277;32.852;-116.998;2022-11-11T04:24:30;100424.94;;;25.15
45701;BMP280;36277;32.852;-116.998;2022-11-11T04:27:17;100420.44;;;25.14
45701;BMP280;36277;32.852;-116.998;2022-11-11T04:29:44;100427.69;;;25.15
45701;BMP280;36277;32.852;-116.998;2022-11-11T04:32:15;100424.75;;;25.17
45701;BMP280;36277;32.852;-116.998;2022-11-11T04:35:11;100431.69;;;25.13
45701;BMP280;36277;32.852;-116.998;2022-11-11T04:37:47;100431.31;;;25.16
45701;BMP280;36277;32.852;-116.998;2022-11-11T04:40:37;100423.97;;;25.08
45701;BMP280;36277;32.852;-116.998;2022-11-11T04:43:21;100428.47;;;25.09
45701;BMP280;36277;32.852;-116.998;2022-11-11T04:45:47;100425.50;;;25.11
45701;BMP280;36277;32.852;-116.998;2022-11-11T04:48:13;100434.44;;;25.13
45701;BMP280;36277;32.852;-116.998;2022-11-11T04:50:43;100434.44;;;25.13
45701;BMP280;36277;32.852;-116.998;2022-11-11T04:53:12;100438.25;;;25.12
45701;BMP280;36277;32.852;-116.998;2022-11-11T04:55:40;100440.72;;;25.07
45701;BMP280;36277;32.852;-116.998;2022-11-11T04:58:28;100437.13;;;25.06
45701;BMP280;36277;32.852;-116.998;2022-11-11T05:00:55;100433.88;;;25.03
45701;BMP280;36277;32.852;-116.998;2022-11-11T05:03:21;100449.41;;;25.04
45701;BMP280;36277;32.852;-116.998;2022-11-11T05:05:58;100454.06;;;25.03
45701;BMP280;36277;32.852;-116.998;2022-11-11T05:08:43;100451.03;;;24.98
45701;BMP280;36277;32.852;-116.998;2022-11-11T05:11:23;100448.47;;;24.97
45701;BMP280;36277;32.852;-116.998;2022-11-11T05:13:50;100447.38;;;24.98
45701;BMP280;36277;32.852;-116.998;2022-11-11T05:16:46;100450.16;;;24.98
45701;BMP280;36277;32.852;-116.998;2022-11-11T05:19:32;100449.22;;;24.91
45701;BMP280;36277;32.852;-116.998;2022-11-11T05:24:49;100456.47;;;24.92
45701;BMP280;36277;32.852;-116.998;2022-11-11T05:27:34;100458.56;;;24.90
45701;BMP280;36277;32.852;-116.998;2022-11-11T05:30:00;100458.56;;;24.90
45701;BMP280;36277;32.852;-116.998;2022-11-11T05:32:26;100457.50;;;24.91
45701;BMP280;36277;32.852;-116.998;2022-11-11T05:34:53;100457.50;;;24.91
45701;BMP280;36277;32.852;-116.998;2022-11-11T05:37:19;100450.28;;;24.90
45701;BMP280;36277;32.852;-116.998;2022-11-11T05:39:46;100448.56;;;24.89
45701;BMP280;36277;32.852;-116.998;2022-11-11T05:42:12;100460.66;;;24.88
45701;BMP280;36277;32.852;-116.998;2022-11-11T05:44:38;100455.13;;;24.88
45701;BMP280;36277;32.852;-116.998;2022-11-11T05:47:05;100455.31;;;24.86
45701;BMP280;36277;32.852;-116.998;2022-11-11T05:49:31;100444.25;;;24.86
45701;BMP280;36277;32.852;-116.998;2022-11-11T05:51:57;100443.41;;;24.86
45701;BMP280;36277;32.852;-116.998;2022-11-11T05:54:24;100446.38;;;24.84
45701;BMP280;36277;32.852;-116.998;2022-11-11T05:56:51;100440.00;;;24.84
45701;BMP280;36277;32.852;-116.998;2022-11-11T05:59:17;100438.66;;;24.80
45701;BMP280;36277;32.852;-116.998;2022-11-11T06:01:44;100446.09;;;24.79
45701;BMP280;36277;32.852;-116.998;2022-11-11T06:04:10;100451.78;;;24.78
45701;BMP280;36277;32.852;-116.998;2022-11-11T06:06:36;100441.78;;;24.77
45701;BMP280;36277;32.852;-116.998;2022-11-11T06:09:03;100450.06;;;24.77
45701;BMP280;36277;32.852;-116.998;2022-11-11T06:11:30;100441.13;;;24.75
45701;BMP280;36277;32.852;-116.998;2022-11-11T06:13:56;100433.88;;;24.74
45701;BMP280;36277;32.852;-116.998;2022-11-11T06:16:22;100442.16;;;24.74
45701;BMP280;36277;32.852;-116.998;2022-11-11T06:18:49;100428.38;;;24.74
45701;BMP280;36277;32.852;-116.998;2022-11-11T06:21:16;100428.56;;;24.72
45701;BMP280;36277;32.852;-116.998;2022-11-11T06:23:43;100428.78;;;24.71
45701;BMP280;36277;32.852;-116.998;2022-11-11T06:26:13;100430.50;;;24.72
45701;BMP280;36277;32.852;-116.998;2022-11-11T06:28:53;100429.41;;;24.73
45701;BMP280;36277;32.852;-116.998;2022-11-11T06:31:23;100420.22;;;24.66
45701;BMP280;36277;32.852;-116.998;2022-11-11T06:33:50;100425.22;;;24.62
45701;BMP280;36277;32.852;-116.998;2022-11-11T06:36:19;100427.16;;;24.62
45701;BMP280;36277;32.852;-116.998;2022-11-11T06:38:46;100415.44;;;24.60
45701;BMP280;36277;32.852;-116.998;2022-11-11T06:41:12;100421.16;;;24.58
45701;BMP280;36277;32.852;-116.998;2022-11-11T06:43:41;100414.09;;;24.56
45701;BMP280;36277;32.852;-116.998;2022-11-11T06:46:22;100423.06;;;24.58
45701;BMP280;36277;32.852;-116.998;2022-11-11T06:48:48;100414.69;;;24.51
45701;BMP280;36277;32.852;-116.998;2022-11-11T06:51:15;100408.28;;;24.51
45701;BMP280;36277;32.852;-116.998;2022-11-11T06:53:41;100405.91;;;24.48
45701;BMP280;36277;32.852;-116.998;2022-11-11T06:56:08;100405.22;;;24.46
45701;BMP280;36277;32.852;-116.998;2022-11-11T06:58:34;100407.13;;;24.45
45701;BMP280;36277;32.852;-116.998;2022-11-11T07:01:05;100418.66;;;24.49
45701;BMP280;36277;32.852;-116.998;2022-11-11T07:03:32;100414.56;;;24.45
45701;BMP280;36277;32.852;-116.998;2022-11-11T07:06:03;100400.56;;;24.46
45701;BMP280;36277;32.852;-116.998;2022-11-11T07:08:30;100400.09;;;24.43
45701;BMP280;36277;32.852;-116.998;2022-11-11T07:10:57;100402.19;;;24.41
45701;BMP280;36277;32.852;-116.998;2022-11-11T07:13:23;100402.19;;;24.41
45701;BMP280;36277;32.852;-116.998;2022-11-11T07:15:50;100403.91;;;24.42
45701;BMP280;36277;32.852;-116.998;2022-11-11T07:18:16;100409.97;;;24.37
45701;BMP280;36277;32.852;-116.998;2022-11-11T07:20:42;100405.47;;;24.36
45701;BMP280;36277;32.852;-116.998;2022-11-11T07:23:08;100410.34;;;24.34
45701;BMP280;36277;32.852;-116.998;2022-11-11T07:25:35;100399.50;;;24.33
45701;BMP280;36277;32.852;-116.998;2022-11-11T07:28:01;100406.06;;;24.32
45701;BMP280;36277;32.852;-116.998;2022-11-11T07:30:27;100406.25;;;24.30
45701;BMP280;36277;32.852;-116.998;2022-11-11T07:32:54;100400.91;;;24.29
45701;BMP280;36277;32.852;-116.998;2022-11-11T07:35:21;100391.59;;;24.30
45701;BMP280;36277;32.852;-116.998;2022-11-11T07:37:47;100401.13;;;24.27
45701;BMP280;36277;32.852;-116.998;2022-11-11T07:40:16;100394.94;;;24.25
45701;BMP280;36277;32.852;-116.998;2022-11-11T07:42:42;100398.91;;;24.23
45701;BMP280;36277;32.852;-116.998;2022-11-11T07:45:10;100402.53;;;24.23
45701;BMP280;36277;32.852;-116.998;2022-11-11T07:47:37;100400.34;;;24.19
45701;BMP280;36277;32.852;-116.998;2022-11-11T07:50:04;100393.97;;;24.18
45701;BMP280;36277;32.852;-116.998;2022-11-11T07:52:31;100392.44;;;24.16
45701;BMP280;36277;32.852;-116.998;2022-11-11T07:54:57;100395.59;;;24.13
45701;BMP280;36277;32.852;-116.998;2022-11-11T07:57:24;100397.47;;;24.13
45701;BMP280;36277;32.852;-116.998;2022-11-11T07:59:50;100397.66;;;24.11
45701;BMP280;36277;32.852;-116.998;2022-11-11T08:02:16;100403.19;;;24.11
45701;BMP280;36277;32.852;-116.998;2022-11-11T08:04:43;100405.28;;;24.09
45701;BMP280;36277;32.852;-116.998;2022-11-11T08:07:09;100404.41;;;24.09
45701;BMP280;36277;32.852;-116.998;2022-11-11T08:09:35;100397.38;;;24.06
45701;BMP280;36277;32.852;-116.998;2022-11-11T08:12:01;100407.72;;;24.04
45701;BMP280;36277;32.852;-116.998;2022-11-11T08:14:46;100389.66;;;24.02
45701;BMP280;36277;32.852;-116.998;2022-11-11T08:17:12;100393.47;;;24.01
45701;BMP280;36277;32.852;-116.998;2022-11-11T08:19:38;100392.41;;;24.02
45701;BMP280;36277;32.852;-116.998;2022-11-11T08:22:04;100390.88;;;23.99
45701;BMP280;36277;32.852;-116.998;2022-11-11T08:24:31;100401.22;;;23.97
45701;BMP280;36277;32.852;-116.998;2022-11-11T08:26:57;100394.19;;;23.95
45701;BMP280;36277;32.852;-116.998;2022-11-11T08:29:23;100393.38;;;23.94
45701;BMP280;36277;32.852;-116.998;2022-11-11T08:31:51;100398.88;;;23.94
45701;BMP280;36277;32.852;-116.998;2022-11-11T08:34:18;100400.28;;;23.90
45701;BMP280;36277;32.852;-116.998;2022-11-11T08:36:44;100390.47;;;23.88
45701;BMP280;36277;32.852;-116.998;2022-11-11T08:39:10;100381.53;;;23.86
45701;BMP280;36277;32.852;-116.998;2022-11-11T08:41:37;100385.31;;;23.85
45701;BMP280;36277;32.852;-116.998;2022-11-11T08:44:03;100389.13;;;23.84
45701;BMP280;36277;32.852;-116.998;2022-11-11T08:46:30;100381.06;;;23.82
45701;BMP280;36277;32.852;-116.998;2022-11-11T08:48:56;100380.38;;;23.80
45701;BMP280;36277;32.852;-116.998;2022-11-11T08:51:22;100382.28;;;23.80
45701;BMP280;36277;32.852;-116.998;2022-11-11T08:53:48;100384.19;;;23.79
45701;BMP280;36277;32.852;-116.998;2022-11-11T08:56:15;100373.50;;;23.76
45701;BMP280;36277;32.852;-116.998;2022-11-11T08:58:41;100371.78;;;23.75
45701;BMP280;36277;32.852;-116.998;2022-11-11T09:01:11;100372.44;;;23.77
45701;BMP280;36277;32.852;-116.998;2022-11-11T09:03:39;100373.84;;;23.73
45701;BMP280;36277;32.852;-116.998;2022-11-11T09:06:08;100364.75;;;23.73
45701;BMP280;36277;32.852;-116.998;2022-11-11T09:08:35;100359.59;;;23.70
45701;BMP280;36277;32.852;-116.998;2022-11-11T09:11:01;100356.16;;;23.68
45701;BMP280;36277;32.852;-116.998;2022-11-11T09:13:28;100359.97;;;23.67
45701;BMP280;36277;32.852;-116.998;2022-11-11T09:15:54;100362.72;;;23.67
45701;BMP280;36277;32.852;-116.998;2022-11-11T09:18:20;100352.75;;;23.66
45701;BMP280;36277;32.852;-116.998;2022-11-11T09:20:47;100355.03;;;23.62
45701;BMP280;36277;32.852;-116.998;2022-11-11T09:23:13;100356.06;;;23.61
45701;BMP280;36277;32.852;-116.998;2022-11-11T09:25:39;100360.03;;;23.59
45701;BMP280;36277;32.852;-116.998;2022-11-11T09:28:05;100357.28;;;23.59
45701;BMP280;36277;32.852;-116.998;2022-11-11T09:30:32;100356.44;;;23.58
45701;BMP280;36277;32.852;-116.998;2022-11-11T09:33:02;100343.69;;;23.57
45701;BMP280;36277;32.852;-116.998;2022-11-11T09:35:30;100348.72;;;23.54
45701;BMP280;36277;32.852;-116.998;2022-11-11T09:37:58;100351.66;;;23.52
45701;BMP280;36277;32.852;-116.998;2022-11-11T09:40:27;100354.09;;;23.47
45701;BMP280;36277;32.852;-116.998;2022-11-11T09:48:44;100355.22;;;23.38
45701;BMP280;36277;32.852;-116.998;2022-11-11T09:51:28;100357.09;;;23.38
45701;BMP280;36277;32.852;-116.998;2022-11-11T09:54:06;100362.81;;;23.36
45701;BMP280;36277;32.852;-116.998;2022-11-11T09:56:37;100348.72;;;23.31
45701;BMP280;36277;32.852;-116.998;2022-11-11T09:59:23;100345.78;;;23.33
45701;BMP280;36277;32.852;-116.998;2022-11-11T10:01:55;100345.31;;;23.29
45701;BMP280;36277;32.852;-116.998;2022-11-11T10:06:55;100339.31;;;23.26
45701;BMP280;36277;32.852;-116.998;2022-11-11T10:09:54;100338.81;;;23.22
45701;BMP280;36277;32.852;-116.998;2022-11-11T10:12:26;100335.19;;;23.22
45701;BMP280;36277;32.852;-116.998;2022-11-11T10:14:58;100343.63;;;23.20
45701;BMP280;36277;32.852;-116.998;2022-11-11T10:20:28;100340.88;;;23.20
45701;BMP280;36277;32.852;-116.998;2022-11-11T10:23:13;100333.84;;;23.18
45701;BMP280;36277;32.852;-116.998;2022-11-11T10:25:53;100330.63;;;23.14
45701;BMP280;36277;32.852;-116.998;2022-11-11T10:28:23;100336.28;;;23.13
45701;BMP280;36277;32.852;-116.998;2022-11-11T10:30:55;100328.22;;;23.11
45701;BMP280;36277;32.852;-116.998;2022-11-11T10:36:20;100319.47;;;23.08
45701;BMP280;36277;32.852;-116.998;2022-11-11T10:38:56;100317.56;;;23.08
45701;BMP280;36277;32.852;-116.998;2022-11-11T10:41:37;100316.88;;;23.06
45701;BMP280;36277;32.852;-116.998;2022-11-11T10:44:21;100320.84;;;23.04
45701;BMP280;36277;32.852;-116.998;2022-11-11T10:52:37;100295.44;;;22.94
45701;BMP280;36277;32.852;-116.998;2022-11-11T10:55:58;100303.50;;;22.96
45701;BMP280;36277;32.852;-116.998;2022-11-11T11:00:32;100303.22;;;22.91
45701;BMP280;36277;32.852;-116.998;2022-11-11T11:03:13;100307.69;;;22.92
45701;BMP280;36277;32.852;-116.998;2022-11-11T11:08:18;100304.25;;;22.90
45701;BMP280;36277;32.852;-116.998;2022-11-11T11:11:39;100301.19;;;22.85
45701;BMP280;36277;32.852;-116.998;2022-11-11T11:14:00;100289.66;;;22.81
45701;BMP280;36277;32.852;-116.998;2022-11-11T11:16:32;100289.50;;;22.83
45701;BMP280;36277;32.852;-116.998;2022-11-11T11:19:20;100295.00;;;22.83
45701;BMP280;36277;32.852;-116.998;2022-11-11T11:24:22;100291.59;;;22.81
45701;BMP280;36277;32.852;-116.998;2022-11-11T11:26:51;100300.19;;;22.78
45701;BMP280;36277;32.852;-116.998;2022-11-11T11:29:42;100292.13;;;22.76
45701;BMP280;36277;32.852;-116.998;2022-11-11T11:32:15;100290.41;;;22.75
45701;BMP280;36277;32.852;-116.998;2022-11-11T11:34:51;100299.88;;;22.73
45701;BMP280;36277;32.852;-116.998;2022-11-11T11:37:20;100293.69;;;22.71
45701;BMP280;36277;32.852;-116.998;2022-11-11T11:39:48;100291.13;;;22.69
45701;BMP280;36277;32.852;-116.998;2022-11-11T11:42:28;100298.50;;;22.69
45701;BMP280;36277;32.852;-116.998;2022-11-11T11:44:54;100302.69;;;22.65
45701;BMP280;36277;32.852;-116.998;2022-11-11T11:48:10;100302.50;;;22.66
45701;BMP280;36277;32.852;-116.998;2022-11-11T11:50:20;100305.97;;;22.60
45701;BMP280;36277;32.852;-116.998;2022-11-11T11:55:30;100303.41;;;22.59
45701;BMP280;36277;32.852;-116.998;2022-11-11T11:58:38;100300.81;;;22.57
45701;BMP280;36277;32.852;-116.998;2022-11-11T12:09:55;100313.28;;;22.45
45701;BMP280;36277;32.852;-116.998;2022-11-11T12:12:31;100320.84;;;22.43
45701;BMP280;36277;32.852;-116.998;2022-11-11T12:17:39;100333.72;;;22.43
45701;BMP280;36277;32.852;-116.998;2022-11-11T12:20:15;100330.66;;;22.38
45701;BMP280;36277;32.852;-116.998;2022-11-11T12:30:39;100339.28;;;22.35
45701;BMP280;36277;32.852;-116.998;2022-11-11T12:33:27;100333.06;;;22.33
45701;BMP280;36277;32.852;-116.998;2022-11-11T12:36:04;100345.25;;;22.30
45701;BMP280;36277;32.852;-116.998;2022-11-11T12:38:48;100353.34;;;22.32
45701;BMP280;36277;32.852;-116.998;2022-11-11T12:44:08;100340.28;;;22.26
45701;BMP280;36277;32.852;-116.998;2022-11-11T12:52:21;100345.81;;;22.18
45701;BMP280;36277;32.852;-116.998;2022-11-11T13:11:56;100364.41;;;22.08
45701;BMP280;36277;32.852;-116.998;2022-11-11T13:14:44;100364.56;;;22.06
45701;BMP280;36277;32.852;-116.998;2022-11-11T13:17:13;100358.56;;;22.03
45701;BMP280;36277;32.852;-116.998;2022-11-11T13:22:41;100369.91;;;22.00
45701;BMP280;36277;32.852;-116.998;2022-11-11T13:25:18;100370.59;;;22.02
45701;BMP280;36277;32.852;-116.998;2022-11-11T13:28:20;100369.91;;;22.00
45701;BMP280;36277;32.852;-116.998;2022-11-11T13:33:45;100364.94;;;21.95
45701;BMP280;36277;32.852;-116.998;2022-11-11T13:36:19;100370.59;;;21.94
45701;BMP280;36277;32.852;-116.998;2022-11-11T13:38:54;100370.59;;;21.94
45701;BMP280;36277;32.852;-116.998;2022-11-11T13:41:26;100377.13;;;21.93
45701;BMP280;36277;32.852;-116.998;2022-11-11T13:43:56;100381.09;;;21.90
45701;BMP280;36277;32.852;-116.998;2022-11-11T13:46:43;100375.59;;;21.90
45701;BMP280;36277;32.852;-116.998;2022-11-11T13:52:30;100383.50;;;21.86
45701;BMP280;36277;32.852;-116.998;2022-11-11T13:55:05;100373.72;;;21.83
45701;BMP280;36277;32.852;-116.998;2022-11-11T13:57:33;100371.13;;;21.82
45701;BMP280;36277;32.852;-116.998;2022-11-11T14:02:42;100369.59;;;21.79
45701;BMP280;36277;32.852;-116.998;2022-11-11T14:13:06;100371.16;;;21.74
45701;BMP280;36277;32.852;-116.998;2022-11-11T14:15:50;100380.56;;;21.71
45701;BMP280;36277;32.852;-116.998;2022-11-11T14:20:50;100386.25;;;21.70
45701;BMP280;36277;32.852;-116.998;2022-11-11T14:23:58;100388.13;;;21.69
45701;BMP280;36277;32.852;-116.998;2022-11-11T14:26:27;100394.16;;;21.65
45701;BMP280;36277;32.852;-116.998;2022-11-11T14:28:57;100390.72;;;21.63
45701;BMP280;36277;32.852;-116.998;2022-11-11T14:34:23;100387.97;;;21.63
45701;BMP280;36277;32.852;-116.998;2022-11-11T14:39:57;100387.78;;;21.56
45701;BMP280;36277;32.852;-116.998;2022-11-11T14:45:04;100391.53;;;21.55
45701;BMP280;36277;32.852;-116.998;2022-11-11T14:47:36;100389.81;;;21.54
45701;BMP280;36277;32.852;-116.998;2022-11-11T14:50:07;100380.91;;;21.52
45701;BMP280;36277;32.852;-116.998;2022-11-11T14:52:49;100373.00;;;21.49
45701;BMP280;36277;32.852;-116.998;2022-11-11T14:55:29;100375.91;;;21.56
45701;BMP280;36277;32.852;-116.998;2022-11-11T14:58:12;100382.63;;;21.53
45701;BMP280;36277;32.852;-116.998;2022-11-11T15:06:02;100371.63;;;21.53
45701;BMP280;36277;32.852;-116.998;2022-11-11T15:08:41;100370.78;;;21.53
45701;BMP280;36277;32.852;-116.998;2022-11-11T15:11:29;100370.94;;;21.51
45701;BMP280;36277;32.852;-116.998;2022-11-11T15:25:36;100368.19;;;21.51
45701;BMP280;36277;32.852;-116.998;2022-11-11T15:39:15;100399.09;;;21.53
45701;BMP280;36277;32.852;-116.998;2022-11-11T15:41:46;100401.50;;;21.56
45701;BMP280;36277;32.852;-116.998;2022-11-11T15:44:26;100408.41;;;21.60
45701;BMP280;36277;32.852;-116.998;2022-11-11T15:46:53;100409.75;;;21.56
45701;BMP280;36277;32.852;-116.998;2022-11-11T15:49:44;100415.63;;;21.61
45701;BMP280;36277;32.852;-116.998;2022-11-11T15:52:28;100416.31;;;21.63
45701;BMP280;36277;32.852;-116.998;2022-11-11T15:54:56;100413.72;;;21.62
45701;BMP280;36277;32.852;-116.998;2022-11-11T15:57:24;100406.34;;;21.62
45701;BMP280;36277;32.852;-116.998;2022-11-11T15:59:52;100417.16;;;21.64
45701;BMP280;36277;32.852;-116.998;2022-11-11T16:02:24;100415.28;;;21.64
45701;BMP280;36277;32.852;-116.998;2022-11-11T16:04:57;100415.28;;;21.64
45701;BMP280;36277;32.852;-116.998;2022-11-11T16:07:33;100405.66;;;21.60
45701;BMP280;36277;32.852;-116.998;2022-11-11T16:13:03;100419.06;;;21.63
45701;BMP280;36277;32.852;-116.998;2022-11-11T16:21:14;100406.66;;;21.67
45701;BMP280;36277;32.852;-116.998;2022-11-11T16:23:39;100407.03;;;21.64